createdAt,value
2022-12-09T00:00:01.876Z,1015.8
2022-12-09T00:01:05.778Z,1015.9
2022-12-09T00:02:02.547Z,1015.9
2022-12-09T00:03:02.109Z,1015.9
2022-12-09T00:04:02.226Z,1015.9
2022-12-09T00:05:01.559Z,1016.0
2022-12-09T00:06:06.851Z,1016.0
2022-12-09T00:07:01.388Z,1016.0
2022-12-09T00:08:01.794Z,1016.0
2022-12-09T00:09:01.450Z,1016.1
2022-12-09T00:10:02.565Z,1016.1
2022-12-09T00:11:02.618Z,1016.1
2022-12-09T00:12:01.740Z,1016.1
2022-12-09T00:13:01.478Z,1016.1
2022-12-09T00:14:01.686Z,1016.1
2022-12-09T00:15:02.925Z,1016.1
2022-12-09T00:16:06.183Z,1016.1
2022-12-09T00:17:01.846Z,1016.1
2022-12-09T00:18:01.394Z,1016.2
2022-12-09T00:19:01.749Z,1016.2
2022-12-09T00:20:03.032Z,1016.2
2022-12-09T00:21:11.599Z,1016.2
2022-12-09T00:22:02.566Z,1016.2
2022-12-09T00:23:02.246Z,1016.2
2022-12-09T00:24:05.075Z,1016.2
2022-12-09T00:25:01.840Z,1016.2
2022-12-09T00:26:01.834Z,1016.1
2022-12-09T00:27:01.702Z,1016.2
2022-12-09T00:28:01.600Z,1016.2
2022-12-09T00:29:02.290Z,1016.2
2022-12-09T00:30:01.754Z,1016.2
2022-12-09T00:31:03.812Z,1016.3
2022-12-09T00:32:01.405Z,1016.3
2022-12-09T00:33:01.424Z,1016.2
2022-12-09T00:34:04.988Z,1016.3
2022-12-09T00:35:01.412Z,1016.3
2022-12-09T00:36:04.994Z,1016.3
2022-12-09T00:37:01.922Z,1016.3
2022-12-09T00:38:01.426Z,1016.2
2022-12-09T00:39:02.709Z,1016.3
2022-12-09T00:40:01.723Z,1016.3
2022-12-09T00:41:02.031Z,1016.3
2022-12-09T00:42:01.710Z,1016.3
2022-12-09T00:43:01.588Z,1016.3
2022-12-09T00:44:01.344Z,1016.3
2022-12-09T00:45:02.014Z,1016.3
2022-12-09T00:46:02.102Z,1016.3
2022-12-09T00:47:01.570Z,1016.3
2022-12-09T00:48:01.979Z,1016.3
2022-12-09T00:49:03.365Z,1016.3
2022-12-09T00:50:01.423Z,1016.3
2022-12-09T00:51:01.469Z,1016.3
2022-12-09T00:52:01.678Z,1016.4
2022-12-09T00:53:01.571Z,1016.3
2022-12-09T00:54:02.289Z,1016.3
2022-12-09T00:55:01.774Z,1016.4
2022-12-09T00:56:02.231Z,1016.3
2022-12-09T00:57:01.795Z,1016.3
2022-12-09T00:58:01.557Z,1016.4
2022-12-09T00:59:01.840Z,1016.3
2022-12-09T01:00:02.015Z,1016.3
2022-12-09T01:01:01.812Z,1016.3
2022-12-09T01:02:01.600Z,1016.3
2022-12-09T01:03:01.771Z,1016.2
2022-12-09T01:04:01.713Z,1016.3
2022-12-09T01:05:01.814Z,1016.3
2022-12-09T01:06:06.421Z,1016.3
2022-12-09T01:07:01.595Z,1016.3
2022-12-09T01:08:02.068Z,1016.4
2022-12-09T01:09:03.143Z,1016.4
2022-12-09T01:10:01.937Z,1016.4
2022-12-09T01:11:08.584Z,1016.3
2022-12-09T01:12:01.605Z,1016.3
2022-12-09T01:13:01.822Z,1016.4
2022-12-09T01:14:03.585Z,1016.4
2022-12-09T01:15:01.665Z,1016.4
2022-12-09T01:16:02.071Z,1016.5
2022-12-09T01:17:01.541Z,1016.5
2022-12-09T01:18:02.302Z,1016.5
2022-12-09T01:19:04.966Z,1016.5
2022-12-09T01:20:02.255Z,1016.5
2022-12-09T01:21:01.499Z,1016.5
2022-12-09T01:22:01.411Z,1016.5
2022-12-09T01:23:01.828Z,1016.5
2022-12-09T01:24:05.195Z,1016.5
2022-12-09T01:25:02.005Z,1016.5
2022-12-09T01:26:03.237Z,1016.5
2022-12-09T01:27:01.876Z,1016.6
2022-12-09T01:28:01.708Z,1016.6
2022-12-09T01:29:02.072Z,1016.6
2022-12-09T01:30:02.199Z,1016.6
2022-12-09T01:31:05.932Z,1016.6
2022-12-09T01:32:01.843Z,1016.6
2022-12-09T01:33:01.915Z,1016.6
2022-12-09T01:34:01.774Z,1016.7
2022-12-09T01:35:01.857Z,1016.7
2022-12-09T01:36:05.550Z,1016.7
2022-12-09T01:37:01.854Z,1016.7
2022-12-09T01:38:01.360Z,1016.7
2022-12-09T01:39:01.725Z,1016.6
2022-12-09T01:40:04.217Z,1016.7
2022-12-09T01:41:02.106Z,1016.7
2022-12-09T01:42:02.741Z,1016.7
2022-12-09T01:43:01.943Z,1016.6
2022-12-09T01:44:12.527Z,1016.6
2022-12-09T01:45:20.935Z,1016.7
2022-12-09T01:46:01.837Z,1016.8
2022-12-09T01:47:02.535Z,1016.8
2022-12-09T01:48:06.184Z,1016.8
2022-12-09T01:49:02.294Z,1016.8
2022-12-09T01:50:01.806Z,1016.8
2022-12-09T01:51:07.843Z,1016.8
2022-12-09T01:52:09.898Z,1016.8
2022-12-09T01:53:01.751Z,1016.8
2022-12-09T01:54:02.059Z,1016.8
2022-12-09T01:55:02.407Z,1016.8
2022-12-09T01:56:07.690Z,1016.8
2022-12-09T01:57:02.422Z,1016.8
2022-12-09T01:58:02.656Z,1016.8
2022-12-09T01:59:06.390Z,1016.7
2022-12-09T02:00:01.399Z,1016.8
2022-12-09T02:01:01.993Z,1016.8
2022-12-09T02:02:04.236Z,1016.8
2022-12-09T02:03:01.846Z,1016.8
2022-12-09T02:04:03.124Z,1016.8
2022-12-09T02:05:03.457Z,1016.8
2022-12-09T02:06:02.163Z,1016.8
2022-12-09T02:07:07.622Z,1016.8
2022-12-09T02:08:01.527Z,1016.8
2022-12-09T02:09:02.747Z,1016.7
2022-12-09T02:10:13.938Z,1016.7
2022-12-09T02:11:13.143Z,1016.8
2022-12-09T02:12:11.410Z,1016.8
2022-12-09T02:13:15.055Z,1016.8
2022-12-09T02:14:09.592Z,1016.8
2022-12-09T02:15:05.554Z,1016.9
2022-12-09T02:16:08.428Z,1016.9
2022-12-09T02:17:20.858Z,1016.9
2022-12-09T02:18:07.026Z,1017.0
2022-12-09T02:19:14.349Z,1017.0
2022-12-09T02:20:12.591Z,1017.0
2022-12-09T02:21:07.454Z,1017.1
2022-12-09T02:22:01.782Z,1017.0
2022-12-09T02:23:07.532Z,1017.0
2022-12-09T02:24:08.127Z,1017.1
2022-12-09T02:25:11.983Z,1017.1
2022-12-09T02:26:15.730Z,1017.1
2022-12-09T02:27:11.401Z,1017.1
2022-12-09T02:28:20.787Z,1017.1
2022-12-09T02:29:21.046Z,1017.1
2022-12-09T02:30:08.344Z,1017.1
2022-12-09T02:31:14.380Z,1017.1
2022-12-09T02:32:17.228Z,1017.1
2022-12-09T02:33:21.188Z,1017.1
2022-12-09T02:34:13.921Z,1017.1
2022-12-09T02:35:08.389Z,1017.1
2022-12-09T02:36:04.604Z,1017.1
2022-12-09T02:37:09.911Z,1017.1
2022-12-09T02:38:08.618Z,1017.1
2022-12-09T02:39:02.977Z,1017.1
2022-12-09T02:40:06.075Z,1017.1
2022-12-09T02:41:06.443Z,1017.1
2022-12-09T02:42:05.633Z,1017.1
2022-12-09T02:43:05.516Z,1017.1
2022-12-09T02:44:07.573Z,1017.1
2022-12-09T02:45:05.158Z,1017.1
2022-12-09T02:46:06.019Z,1017.1
2022-12-09T02:47:03.994Z,1017.1
2022-12-09T02:48:03.744Z,1017.0
2022-12-09T02:49:01.915Z,1017.0
2022-12-09T02:50:07.404Z,1017.1
2022-12-09T02:51:05.654Z,1017.1
2022-12-09T02:52:04.278Z,1017.1
2022-12-09T02:53:06.444Z,1017.1
2022-12-09T02:54:06.813Z,1017.2
2022-12-09T02:55:06.238Z,1017.2
2022-12-09T02:56:04.981Z,1017.1
2022-12-09T02:57:07.449Z,1017.2
2022-12-09T02:58:02.819Z,1017.2
2022-12-09T02:59:01.769Z,1017.1
2022-12-09T03:00:01.937Z,1017.1
2022-12-09T03:01:02.046Z,1017.1
2022-12-09T03:02:16.856Z,1017.1
2022-12-09T03:03:04.729Z,1017.1
2022-12-09T03:04:04.169Z,1017.1
2022-12-09T03:05:12.459Z,1017.1
2022-12-09T03:06:07.701Z,1017.1
2022-12-09T03:07:12.351Z,1017.1
2022-12-09T03:08:13.618Z,1017.1
2022-12-09T03:09:08.706Z,1017.1
2022-12-09T03:10:10.317Z,1017.2
2022-12-09T03:11:05.777Z,1017.2
2022-12-09T03:12:07.802Z,1017.2
2022-12-09T03:13:13.958Z,1017.2
2022-12-09T03:14:07.942Z,1017.2
2022-12-09T03:15:05.901Z,1017.2
2022-12-09T03:16:09.460Z,1017.2
2022-12-09T03:17:08.855Z,1017.2
2022-12-09T03:18:07.136Z,1017.2
2022-12-09T03:19:08.256Z,1017.2
2022-12-09T03:20:08.532Z,1017.2
2022-12-09T03:21:05.417Z,1017.2
2022-12-09T03:22:04.652Z,1017.2
2022-12-09T03:23:05.785Z,1017.2
2022-12-09T03:24:03.925Z,1017.2
2022-12-09T03:25:07.552Z,1017.2
2022-12-09T03:26:03.548Z,1017.2
2022-12-09T03:27:05.586Z,1017.3
2022-12-09T03:28:05.348Z,1017.3
2022-12-09T03:29:08.137Z,1017.2
2022-12-09T03:30:04.656Z,1017.2
2022-12-09T03:31:05.595Z,1017.3
2022-12-09T03:32:02.197Z,1017.3
2022-12-09T03:33:03.329Z,1017.3
2022-12-09T03:34:05.356Z,1017.3
2022-12-09T03:35:07.861Z,1017.3
2022-12-09T03:36:05.620Z,1017.3
2022-12-09T03:37:03.168Z,1017.3
2022-12-09T03:38:05.435Z,1017.3
2022-12-09T03:39:05.378Z,1017.3
2022-12-09T03:40:09.873Z,1017.3
2022-12-09T03:41:07.683Z,1017.2
2022-12-09T03:42:06.754Z,1017.2
2022-12-09T03:43:07.816Z,1017.2
2022-12-09T03:44:10.861Z,1017.2
2022-12-09T03:45:06.888Z,1017.2
2022-12-09T03:46:01.931Z,1017.2
2022-12-09T03:47:04.378Z,1017.2
2022-12-09T03:48:02.898Z,1017.2
2022-12-09T03:49:02.019Z,1017.2
2022-12-09T03:50:02.328Z,1017.2
2022-12-09T03:51:08.698Z,1017.3
2022-12-09T03:52:07.802Z,1017.2
2022-12-09T03:53:09.577Z,1017.2
2022-12-09T03:54:08.921Z,1017.2
2022-12-09T03:55:07.602Z,1017.2
2022-12-09T03:56:10.270Z,1017.2
2022-12-09T03:57:02.904Z,1017.2
2022-12-09T03:58:04.504Z,1017.3
2022-12-09T03:59:04.186Z,1017.3
2022-12-09T04:00:02.879Z,1017.3
2022-12-09T04:01:02.791Z,1017.3
2022-12-09T04:02:02.434Z,1017.3
2022-12-09T04:03:03.144Z,1017.3
2022-12-09T04:04:01.684Z,1017.3
2022-12-09T04:05:02.400Z,1017.3
2022-12-09T04:06:01.581Z,1017.3
2022-12-09T04:07:01.688Z,1017.3
2022-12-09T04:08:02.610Z,1017.3
2022-12-09T04:09:03.327Z,1017.4
2022-12-09T04:10:02.347Z,1017.3
2022-12-09T04:11:02.152Z,1017.4
2022-12-09T04:12:01.562Z,1017.4
2022-12-09T04:13:01.988Z,1017.4
2022-12-09T04:14:02.468Z,1017.4
2022-12-09T04:15:01.386Z,1017.4
2022-12-09T04:16:01.848Z,1017.4
2022-12-09T04:17:02.647Z,1017.4
2022-12-09T04:18:01.639Z,1017.4
2022-12-09T04:19:01.717Z,1017.4
2022-12-09T04:20:01.569Z,1017.4
2022-12-09T04:21:04.983Z,1017.4
2022-12-09T04:22:02.448Z,1017.4
2022-12-09T04:23:01.938Z,1017.4
2022-12-09T04:24:01.744Z,1017.4
2022-12-09T04:25:02.429Z,1017.4
2022-12-09T04:26:02.680Z,1017.4
2022-12-09T04:27:01.706Z,1017.4
2022-12-09T04:28:01.720Z,1017.4
2022-12-09T04:29:01.966Z,1017.4
2022-12-09T04:30:01.625Z,1017.4
2022-12-09T04:31:01.777Z,1017.4
2022-12-09T04:32:01.530Z,1017.4
2022-12-09T04:33:02.196Z,1017.4
2022-12-09T04:34:08.345Z,1017.3
2022-12-09T04:35:02.321Z,1017.3
2022-12-09T04:36:03.714Z,1017.3
2022-12-09T04:37:01.741Z,1017.3
2022-12-09T04:38:01.441Z,1017.3
2022-12-09T04:39:01.376Z,1017.3
2022-12-09T04:40:01.420Z,1017.3
2022-12-09T04:41:03.347Z,1017.3
2022-12-09T04:42:01.973Z,1017.3
2022-12-09T04:43:01.554Z,1017.3
2022-12-09T04:44:02.489Z,1017.3
2022-12-09T04:45:02.445Z,1017.3
2022-12-09T04:46:04.178Z,1017.3
2022-12-09T04:47:02.008Z,1017.3
2022-12-09T04:48:01.476Z,1017.3
2022-12-09T04:49:01.409Z,1017.3
2022-12-09T04:50:02.192Z,1017.3
2022-12-09T04:51:01.535Z,1017.3
2022-12-09T04:52:01.424Z,1017.3
2022-12-09T04:53:02.380Z,1017.3
2022-12-09T04:54:02.130Z,1017.3
2022-12-09T04:55:01.388Z,1017.2
2022-12-09T04:56:04.256Z,1017.2
2022-12-09T04:57:01.705Z,1017.2
2022-12-09T04:58:02.483Z,1017.2
2022-12-09T04:59:01.362Z,1017.3
2022-12-09T05:00:01.827Z,1017.3
2022-12-09T05:01:06.859Z,1017.3
2022-12-09T05:02:01.699Z,1017.3
2022-12-09T05:03:01.814Z,1017.2
2022-12-09T05:04:01.673Z,1017.2
2022-12-09T05:05:02.056Z,1017.2
2022-12-09T05:06:03.496Z,1017.2
2022-12-09T05:07:01.639Z,1017.2
2022-12-09T05:08:01.591Z,1017.2
2022-12-09T05:09:02.704Z,1017.2
2022-12-09T05:10:02.249Z,1017.2
2022-12-09T05:11:02.527Z,1017.2
2022-12-09T05:12:01.717Z,1017.2
2022-12-09T05:13:02.105Z,1017.1
2022-12-09T05:14:02.386Z,1017.1
2022-12-09T05:15:03.385Z,1017.1
2022-12-09T05:16:06.860Z,1017.0
2022-12-09T05:17:02.498Z,1017.1
2022-12-09T05:18:01.666Z,1017.1
2022-12-09T05:19:01.790Z,1017.1
2022-12-09T05:20:02.822Z,1017.0
2022-12-09T05:21:04.737Z,1017.0
2022-12-09T05:22:02.369Z,1017.0
2022-12-09T05:23:07.424Z,1017.0
2022-12-09T05:24:02.470Z,1017.0
2022-12-09T05:25:01.746Z,1017.0
2022-12-09T05:26:03.645Z,1017.0
2022-12-09T05:27:02.151Z,1017.0
2022-12-09T05:28:01.729Z,1017.0
2022-12-09T05:29:01.821Z,1017.0
2022-12-09T05:30:01.870Z,1017.0
2022-12-09T05:31:03.252Z,1016.9
2022-12-09T05:32:02.273Z,1017.0
2022-12-09T05:33:02.119Z,1016.9
2022-12-09T05:34:01.505Z,1016.9
2022-12-09T05:35:02.048Z,1016.9
2022-12-09T05:36:02.007Z,1016.9
2022-12-09T05:37:01.768Z,1016.9
2022-12-09T05:38:01.844Z,1016.9
2022-12-09T05:39:02.136Z,1016.9
2022-12-09T05:40:01.963Z,1016.9
2022-12-09T05:41:01.471Z,1016.9
2022-12-09T05:42:01.827Z,1016.9
2022-12-09T05:43:02.277Z,1016.9
2022-12-09T05:44:02.209Z,1016.9
2022-12-09T05:45:01.775Z,1016.9
2022-12-09T05:46:02.762Z,1016.9
2022-12-09T05:47:02.144Z,1016.8
2022-12-09T05:48:01.575Z,1016.9
2022-12-09T05:49:02.099Z,1016.9
2022-12-09T05:50:06.120Z,1016.8
2022-12-09T05:51:04.191Z,1016.8
2022-12-09T05:52:02.056Z,1016.8
2022-12-09T05:53:02.213Z,1016.8
2022-12-09T05:54:04.576Z,1016.9
2022-12-09T05:55:04.033Z,1016.9
2022-12-09T05:56:03.010Z,1016.9
2022-12-09T05:57:01.564Z,1016.9
2022-12-09T05:58:01.530Z,1016.9
2022-12-09T05:59:01.464Z,1016.9
2022-12-09T06:00:02.199Z,1016.9
2022-12-09T06:01:05.722Z,1016.8
2022-12-09T06:02:06.922Z,1016.9
2022-12-09T06:03:01.822Z,1016.9
2022-12-09T06:04:02.177Z,1016.9
2022-12-09T06:05:01.574Z,1016.9
2022-12-09T06:06:05.487Z,1016.9
2022-12-09T06:07:02.035Z,1016.9
2022-12-09T06:08:06.845Z,1016.9
2022-12-09T06:09:02.074Z,1016.9
2022-12-09T06:10:02.106Z,1016.9
2022-12-09T06:11:02.301Z,1016.9
2022-12-09T06:12:03.032Z,1016.9
2022-12-09T06:13:01.899Z,1016.9
2022-12-09T06:14:01.554Z,1016.9
2022-12-09T06:15:02.287Z,1016.8
2022-12-09T06:16:03.136Z,1016.8
2022-12-09T06:17:02.059Z,1016.8
2022-12-09T06:18:02.080Z,1016.8
2022-12-09T06:19:02.822Z,1016.9
2022-12-09T06:20:01.742Z,1016.8
2022-12-09T06:21:05.748Z,1016.9
2022-12-09T06:22:01.479Z,1016.8
2022-12-09T06:23:01.427Z,1016.9
2022-12-09T06:24:01.391Z,1016.9
2022-12-09T06:25:01.398Z,1016.9
2022-12-09T06:26:02.926Z,1016.9
2022-12-09T06:27:02.167Z,1016.9
2022-12-09T06:28:02.170Z,1016.9
2022-12-09T06:29:02.502Z,1016.9
2022-12-09T06:30:02.474Z,1016.9
2022-12-09T06:31:01.832Z,1016.9
2022-12-09T06:32:01.798Z,1016.9
2022-12-09T06:33:02.224Z,1016.9
2022-12-09T06:34:02.044Z,1017.0
2022-12-09T06:35:02.096Z,1017.0
2022-12-09T06:36:02.905Z,1017.0
2022-12-09T06:37:02.123Z,1017.0
2022-12-09T06:38:01.849Z,1017.0
2022-12-09T06:39:09.996Z,1017.0
2022-12-09T06:40:03.331Z,1017.0
2022-12-09T06:41:05.824Z,1017.0
2022-12-09T06:42:01.799Z,1017.0
2022-12-09T06:43:01.400Z,1017.0
2022-12-09T06:44:02.014Z,1017.0
2022-12-09T06:45:03.952Z,1017.1
2022-12-09T06:46:03.171Z,1017.1
2022-12-09T06:47:01.978Z,1017.1
2022-12-09T06:48:03.313Z,1017.0
2022-12-09T06:49:01.975Z,1017.1
2022-12-09T06:50:06.587Z,1017.1
2022-12-09T06:51:01.965Z,1017.0
2022-12-09T06:52:01.826Z,1017.0
2022-12-09T06:53:01.945Z,1017.1
2022-12-09T06:54:01.707Z,1017.1
2022-12-09T06:55:02.233Z,1017.1
2022-12-09T06:56:09.502Z,1017.1
2022-12-09T06:57:01.972Z,1017.1
2022-12-09T06:58:01.772Z,1017.1
2022-12-09T06:59:06.002Z,1017.1
2022-12-09T07:00:03.425Z,1017.1
2022-12-09T07:01:06.181Z,1017.1
2022-12-09T07:02:01.912Z,1017.1
2022-12-09T07:03:01.890Z,1017.1
2022-12-09T07:04:04.169Z,1017.1
2022-12-09T07:05:02.116Z,1017.1
2022-12-09T07:06:01.936Z,1017.1
2022-12-09T07:07:01.748Z,1017.2
2022-12-09T07:08:01.911Z,1017.2
2022-12-09T07:09:04.783Z,1017.2
2022-12-09T07:10:02.983Z,1017.2
2022-12-09T07:11:01.957Z,1017.2
2022-12-09T07:12:01.816Z,1017.2
2022-12-09T07:13:01.741Z,1017.3
2022-12-09T07:14:02.302Z,1017.3
2022-12-09T07:15:02.001Z,1017.2
2022-12-09T07:16:01.558Z,1017.3
2022-12-09T07:17:02.306Z,1017.3
2022-12-09T07:18:01.897Z,1017.3
2022-12-09T07:19:02.767Z,1017.3
2022-12-09T07:20:06.663Z,1017.3
2022-12-09T07:21:05.580Z,1017.2
2022-12-09T07:22:01.783Z,1017.2
2022-12-09T07:23:02.286Z,1017.3
2022-12-09T07:24:02.906Z,1017.3
2022-12-09T07:25:02.195Z,1017.2
2022-12-09T07:26:01.734Z,1017.3
2022-12-09T07:27:08.087Z,1017.2
2022-12-09T07:28:01.922Z,1017.2
2022-12-09T07:29:02.970Z,1017.2
2022-12-09T07:30:02.007Z,1017.2
2022-12-09T07:31:02.503Z,1017.2
2022-12-09T07:32:03.163Z,1017.2
2022-12-09T07:33:01.500Z,1017.2
2022-12-09T07:34:03.868Z,1017.2
2022-12-09T07:35:02.203Z,1017.2
2022-12-09T07:36:01.794Z,1017.2
2022-12-09T07:37:01.367Z,1017.1
2022-12-09T07:38:01.670Z,1017.2
2022-12-09T07:39:04.176Z,1017.2
2022-12-09T07:40:02.463Z,1017.1
2022-12-09T07:41:05.548Z,1017.2
2022-12-09T07:42:02.236Z,1017.2
2022-12-09T07:43:01.939Z,1017.1
2022-12-09T07:44:02.077Z,1017.2
2022-12-09T07:45:02.190Z,1017.2
2022-12-09T07:46:05.781Z,1017.2
2022-12-09T07:47:01.532Z,1017.1
2022-12-09T07:48:01.703Z,1017.2
2022-12-09T07:49:03.062Z,1017.1
2022-12-09T07:50:06.244Z,1017.1
2022-12-09T07:51:03.461Z,1017.1
2022-12-09T07:52:02.096Z,1017.1
2022-12-09T07:53:02.089Z,1017.2
2022-12-09T07:54:02.010Z,1017.1
2022-12-09T07:55:01.563Z,1017.1
2022-12-09T07:56:02.571Z,1017.1
2022-12-09T07:57:01.688Z,1017.1
2022-12-09T07:58:02.293Z,1017.2
2022-12-09T07:59:05.836Z,1017.2
2022-12-09T08:00:02.816Z,1017.1
2022-12-09T08:01:05.652Z,1017.2
2022-12-09T08:02:05.959Z,1017.2
2022-12-09T08:03:01.847Z,1017.2
2022-12-09T08:04:04.202Z,1017.2
2022-12-09T08:05:02.268Z,1017.2
2022-12-09T08:06:02.494Z,1017.2
2022-12-09T08:07:01.671Z,1017.1
2022-12-09T08:08:02.076Z,1017.2
2022-12-09T08:09:04.989Z,1017.2
2022-12-09T08:10:01.943Z,1017.1
2022-12-09T08:11:06.944Z,1017.1
2022-12-09T08:12:01.989Z,1017.1
2022-12-09T08:13:01.881Z,1017.1
2022-12-09T08:14:10.849Z,1017.1
2022-12-09T08:15:01.762Z,1017.1
2022-12-09T08:16:03.405Z,1017.1
2022-12-09T08:17:02.049Z,1017.2
2022-12-09T08:18:01.954Z,1017.1
2022-12-09T08:19:01.812Z,1017.1
2022-12-09T08:20:01.695Z,1017.1
2022-12-09T08:21:05.297Z,1017.1
2022-12-09T08:22:01.810Z,1017.1
2022-12-09T08:23:02.164Z,1017.1
2022-12-09T08:24:04.211Z,1017.0
2022-12-09T08:25:01.893Z,1017.1
2022-12-09T08:26:03.266Z,1017.1
2022-12-09T08:27:02.104Z,1017.1
2022-12-09T08:28:01.512Z,1017.1
2022-12-09T08:30:01.740Z,1017.1
2022-12-09T08:31:06.202Z,1017.0
2022-12-09T08:32:02.263Z,1017.0
2022-12-09T08:33:02.519Z,1017.0
2022-12-09T08:34:03.145Z,1017.0
2022-12-09T08:35:02.066Z,1017.0
2022-12-09T08:36:02.608Z,1017.1
2022-12-09T08:37:02.425Z,1017.1
2022-12-09T08:38:02.300Z,1017.0
2022-12-09T08:39:02.200Z,1017.0
2022-12-09T08:40:02.176Z,1017.0
2022-12-09T08:41:07.425Z,1017.1
2022-12-09T08:42:01.653Z,1017.1
2022-12-09T08:43:03.794Z,1017.1
2022-12-09T08:44:03.542Z,1017.1
2022-12-09T08:45:03.110Z,1017.0
2022-12-09T08:46:01.820Z,1017.0
2022-12-09T08:47:02.037Z,1017.1
2022-12-09T08:48:01.461Z,1017.1
2022-12-09T08:49:02.761Z,1017.1
2022-12-09T08:50:02.065Z,1017.1
2022-12-09T08:51:01.982Z,1017.1
2022-12-09T08:52:02.012Z,1017.1
2022-12-09T08:53:01.767Z,1017.1
2022-12-09T08:54:03.232Z,1017.0
2022-12-09T08:55:01.458Z,1017.1
2022-12-09T08:56:08.138Z,1017.0
2022-12-09T08:57:01.720Z,1017.0
2022-12-09T08:58:01.688Z,1017.1
2022-12-09T08:59:03.062Z,1017.1
2022-12-09T09:00:03.929Z,1017.1
2022-12-09T09:01:01.644Z,1017.1
2022-12-09T09:02:02.051Z,1017.1
2022-12-09T09:03:01.955Z,1017.1
2022-12-09T09:04:04.196Z,1017.1
2022-12-09T09:05:01.714Z,1017.1
2022-12-09T09:06:09.254Z,1017.1
2022-12-09T09:07:01.545Z,1017.0
2022-12-09T09:08:01.835Z,1017.1
2022-12-09T09:09:01.973Z,1017.1
2022-12-09T09:10:02.942Z,1017.0
2022-12-09T09:11:01.797Z,1017.1
2022-12-09T09:12:01.967Z,1017.1
2022-12-09T09:13:01.756Z,1017.0
2022-12-09T09:14:04.155Z,1017.0
2022-12-09T09:15:02.020Z,1017.1
2022-12-09T09:16:01.887Z,1017.1
2022-12-09T09:17:02.056Z,1017.0
2022-12-09T09:18:01.493Z,1017.0
2022-12-09T09:19:02.024Z,1017.0
2022-12-09T09:20:02.028Z,1017.0
2022-12-09T09:21:01.941Z,1017.0
2022-12-09T09:22:02.803Z,1017.0
2022-12-09T09:23:03.311Z,1017.0
2022-12-09T09:24:02.353Z,1017.0
2022-12-09T09:25:01.640Z,1017.0
2022-12-09T09:26:01.842Z,1017.0
2022-12-09T09:27:02.816Z,1017.0
2022-12-09T09:28:01.590Z,1017.0
2022-12-09T09:29:02.118Z,1017.0
2022-12-09T09:30:01.473Z,1016.9
2022-12-09T09:31:04.286Z,1016.9
2022-12-09T09:32:01.973Z,1016.9
2022-12-09T09:33:01.850Z,1016.9
2022-12-09T09:34:02.139Z,1016.9
2022-12-09T09:35:01.561Z,1017.0
2022-12-09T09:36:09.639Z,1017.0
2022-12-09T09:37:01.730Z,1016.9
2022-12-09T09:38:01.426Z,1017.0
2022-12-09T09:39:02.238Z,1017.0
2022-12-09T09:40:02.113Z,1017.0
2022-12-09T09:41:14.643Z,1017.0
2022-12-09T09:42:08.201Z,1016.9
2022-12-09T09:43:02.143Z,1017.0
2022-12-09T09:44:02.336Z,1016.9
2022-12-09T09:45:04.788Z,1017.0
2022-12-09T09:46:04.553Z,1017.0
2022-12-09T09:47:09.346Z,1016.9
2022-12-09T09:48:03.610Z,1016.9
2022-12-09T09:49:03.953Z,1016.9
2022-12-09T09:50:06.514Z,1016.9
2022-12-09T09:51:13.104Z,1016.9
2022-12-09T09:52:06.576Z,1016.9
2022-12-09T09:53:13.395Z,1017.0
2022-12-09T09:54:08.110Z,1017.0
2022-12-09T09:55:13.956Z,1017.0
2022-12-09T09:56:10.445Z,1017.0
2022-12-09T09:57:10.191Z,1017.0
2022-12-09T09:58:11.707Z,1017.0
2022-12-09T09:59:16.961Z,1017.0
2022-12-09T10:00:11.038Z,1017.0
2022-12-09T10:01:06.481Z,1016.9
2022-12-09T10:02:15.084Z,1016.9
2022-12-09T10:03:09.401Z,1016.9
2022-12-09T10:04:14.229Z,1016.9
2022-12-09T10:05:13.291Z,1016.9
2022-12-09T10:06:11.700Z,1017.0
2022-12-09T10:07:11.722Z,1017.0
2022-12-09T10:08:16.592Z,1017.0
2022-12-09T10:09:07.620Z,1016.9
2022-12-09T10:10:13.527Z,1016.9
2022-12-09T10:11:14.140Z,1016.9
2022-12-09T10:12:15.464Z,1016.9
2022-12-09T10:13:18.344Z,1016.9
2022-12-09T10:14:14.269Z,1016.9
2022-12-09T10:15:12.608Z,1016.9
2022-12-09T10:16:13.229Z,1016.9
2022-12-09T10:17:14.640Z,1016.9
2022-12-09T10:18:13.720Z,1016.9
2022-12-09T10:19:08.977Z,1016.9
2022-12-09T10:20:09.645Z,1016.9
2022-12-09T10:21:02.393Z,1016.9
2022-12-09T10:22:12.793Z,1016.9
2022-12-09T10:23:04.081Z,1016.9
2022-12-09T10:24:15.073Z,1016.9
2022-12-09T10:25:16.236Z,1016.9
2022-12-09T10:26:06.107Z,1016.9
2022-12-09T10:27:11.835Z,1016.9
2022-12-09T10:28:12.894Z,1016.9
2022-12-09T10:29:13.586Z,1016.9
2022-12-09T10:30:05.209Z,1017.0
2022-12-09T10:31:03.368Z,1017.0
2022-12-09T10:32:02.623Z,1016.9
2022-12-09T10:33:01.556Z,1017.0
2022-12-09T10:34:01.974Z,1017.0
2022-12-09T10:35:12.642Z,1017.0
2022-12-09T10:36:04.378Z,1017.0
2022-12-09T10:37:01.885Z,1017.1
2022-12-09T10:38:07.550Z,1017.1
2022-12-09T10:39:02.346Z,1017.1
2022-12-09T10:40:16.422Z,1017.1
2022-12-09T10:41:07.317Z,1017.1
2022-12-09T10:42:03.757Z,1017.1
2022-12-09T10:43:20.780Z,1017.1
2022-12-09T10:44:17.577Z,1017.0
2022-12-09T10:45:05.579Z,1017.1
2022-12-09T10:46:18.886Z,1017.1
2022-12-09T10:47:05.207Z,1017.0
2022-12-09T10:48:01.933Z,1017.1
2022-12-09T10:49:02.396Z,1017.1
2022-12-09T10:50:04.042Z,1017.1
2022-12-09T10:51:05.114Z,1017.1
2022-12-09T10:52:02.424Z,1017.1
2022-12-09T10:53:07.066Z,1017.1
2022-12-09T10:54:20.799Z,1017.1
2022-12-09T10:55:02.452Z,1017.1
2022-12-09T10:56:03.421Z,1017.2
2022-12-09T10:57:04.454Z,1017.2
2022-12-09T10:58:14.378Z,1017.2
2022-12-09T10:59:16.635Z,1017.2
2022-12-09T11:00:06.497Z,1017.2
2022-12-09T11:01:06.930Z,1017.2
2022-12-09T11:02:12.846Z,1017.2
2022-12-09T11:03:01.613Z,1017.2
2022-12-09T11:04:12.543Z,1017.2
2022-12-09T11:05:20.875Z,1017.1
2022-12-09T11:06:11.181Z,1017.2
2022-12-09T11:07:13.098Z,1017.1
2022-12-09T11:08:01.987Z,1017.2
2022-12-09T11:09:03.174Z,1017.2
2022-12-09T11:10:15.468Z,1017.2
2022-12-09T11:11:02.038Z,1017.2
2022-12-09T11:12:04.865Z,1017.2
2022-12-09T11:13:05.450Z,1017.2
2022-12-09T11:14:01.582Z,1017.3
2022-12-09T11:15:05.287Z,1017.3
2022-12-09T11:16:02.118Z,1017.3
2022-12-09T11:17:13.671Z,1017.3
2022-12-09T11:18:05.197Z,1017.3
2022-12-09T11:19:01.686Z,1017.3
2022-12-09T11:20:18.411Z,1017.3
2022-12-09T11:21:04.905Z,1017.4
2022-12-09T11:22:21.298Z,1017.3
2022-12-09T11:23:05.408Z,1017.4
2022-12-09T11:24:03.672Z,1017.4
2022-12-09T11:25:16.620Z,1017.4
2022-12-09T11:26:04.011Z,1017.4
2022-12-09T11:27:01.356Z,1017.5
2022-12-09T11:28:04.795Z,1017.5
2022-12-09T11:29:05.364Z,1017.5
2022-12-09T11:30:13.794Z,1017.5
2022-12-09T11:31:28.538Z,1017.5
2022-12-09T11:32:02.344Z,1017.5
2022-12-09T11:33:06.919Z,1017.5
2022-12-09T11:34:05.495Z,1017.5
2022-12-09T11:35:02.446Z,1017.5
2022-12-09T11:37:02.312Z,1017.6
2022-12-09T11:38:13.539Z,1017.6
2022-12-09T11:39:17.665Z,1017.5
2022-12-09T11:40:01.531Z,1017.6
2022-12-09T11:41:12.306Z,1017.6
2022-12-09T11:42:16.105Z,1017.6
2022-12-09T11:43:01.658Z,1017.7
2022-12-09T11:44:12.299Z,1017.7
2022-12-09T11:45:06.117Z,1017.7
2022-12-09T11:46:14.636Z,1017.7
2022-12-09T11:47:05.733Z,1017.7
2022-12-09T11:48:29.913Z,1017.7
2022-12-09T11:49:05.759Z,1017.7
2022-12-09T11:50:14.494Z,1017.7
2022-12-09T11:51:01.908Z,1017.7
2022-12-09T11:52:09.362Z,1017.7
2022-12-09T11:53:06.996Z,1017.7
2022-12-09T11:54:10.079Z,1017.7
2022-12-09T11:55:15.037Z,1017.6
2022-12-09T11:56:06.490Z,1017.7
2022-12-09T11:57:04.948Z,1017.7
2022-12-09T11:58:05.533Z,1017.7
2022-12-09T11:59:08.488Z,1017.6
2022-12-09T12:00:12.855Z,1017.6
2022-12-09T12:01:06.453Z,1017.6
2022-12-09T12:02:11.248Z,1017.6
2022-12-09T12:03:10.480Z,1017.7
2022-12-09T12:04:07.085Z,1017.7
2022-12-09T12:05:08.850Z,1017.7
2022-12-09T12:06:05.979Z,1017.6
2022-12-09T12:07:06.353Z,1017.7
2022-12-09T12:08:11.938Z,1017.6
2022-12-09T12:09:09.618Z,1017.7
2022-12-09T12:10:04.776Z,1017.7
2022-12-09T12:11:10.465Z,1017.7
2022-12-09T12:12:08.744Z,1017.6
2022-12-09T12:13:13.421Z,1017.6
2022-12-09T12:14:10.935Z,1017.6
2022-12-09T12:15:10.250Z,1017.6
2022-12-09T12:16:07.864Z,1017.6
2022-12-09T12:17:11.638Z,1017.6
2022-12-09T12:18:07.141Z,1017.6
2022-12-09T12:19:08.692Z,1017.6
2022-12-09T12:20:03.538Z,1017.6
2022-12-09T12:21:18.209Z,1017.5
2022-12-09T12:22:21.104Z,1017.5
2022-12-09T12:23:19.147Z,1017.6
2022-12-09T12:24:19.929Z,1017.6
2022-12-09T12:25:21.036Z,1017.6
2022-12-09T12:26:11.195Z,1017.6
2022-12-09T12:27:14.219Z,1017.6
2022-12-09T12:28:16.904Z,1017.6
2022-12-09T12:29:16.759Z,1017.6
2022-12-09T12:30:07.693Z,1017.6